Time;durP1;ratioP1;P1;durP2;ratioP2;P2;SDS_P1;SDS_P2;PMS_P1;PMS_P2;Temp;Humidity;BMP_temperature;BMP_pressure;BME280_temperature;BME280_humidity;BME280_pressure;Samples;Min_cycle;Max_cycle;Signal;HPM_P1;HPM_P2
2023/03/31 10:53:32;;;;;;;3.67;1.30;;;15.90;99.90;;;;;;1001382;26;21507;-85
2023/03/31 11:00:33;;;;;;;4.87;1.33;;;16.10;99.90;;;;;;4861461;29;20460;-84
2023/03/31 11:04:04;;;;;;;4.77;1.40;;;16.40;99.90;;;;;;4953239;28;20984;-84
2023/03/31 11:10:23;;;;;;;;;;;;;;;;;;;;;
2023/03/31 11:13:17;;;;;;;4.40;1.63;;;17.60;99.90;;;;;;4943748;28;20549;-84
2023/03/31 11:15:54;;;;;;;2.73;1.40;;;17.90;99.90;;;;;;4953846;28;20485;-85
2023/03/31 11:19:33;;;;;;;;;;;;;;;;;;;;;
2023/03/31 11:22:28;;;;;;;7.97;1.90;;;18.40;99.90;;;;;;4865717;29;20523;-85
2023/03/31 11:25:17;;;;;;;6.70;1.97;;;18.50;99.90;;;;;;4858290;29;20473;-85
2023/03/31 11:28:43;;;;;;;8.90;2.13;;;18.80;99.90;;;;;;4947487;28;20439;-84
2023/03/31 11:32:21;;;;;;;9.93;1.57;;;19.30;99.90;;;;;;4877301;29;20538;-84
2023/03/31 11:35:24;;;;;;;8.23;2.00;;;19.70;99.90;;;;;;4899224;29;20471;-84
2023/03/31 11:39:06;;;;;;;10.17;2.47;;;20.00;99.90;;;;;;4956519;28;20467;-85
2023/03/31 11:41:57;;;;;;;11.83;2.23;;;20.60;99.90;;;;;;4860435;29;20442;-84
2023/03/31 11:44:51;;;;;;;9.70;2.50;;;20.70;99.90;;;;;;4944150;28;20524;-84
2023/03/31 11:47:46;;;;;;;9.53;2.30;;;20.40;99.90;;;;;;4955211;28;20448;-85
2023/03/31 11:50:37;;;;;;;5.60;2.40;;;20.20;99.90;;;;;;4942432;28;20511;-84
2023/03/31 11:56:37;;;;;;;10.97;3.00;;;19.70;99.90;;;;;;4939772;28;20463;-85
2023/03/31 11:59:16;;;;;;;7.27;2.13;;;19.50;99.90;;;;;;4928833;28;20446;-84
2023/03/31 12:02:07;;;;;;;13.10;3.10;;;20.10;99.90;;;;;;4943384;29;20441;-85
2023/03/31 12:05:09;;;;;;;5.93;1.97;;;20.80;99.90;;;;;;4951237;28;20477;-85
2023/03/31 12:07:56;;;;;;;7.57;2.70;;;20.80;99.90;;;;;;4952505;28;20911;-84
2023/03/31 12:10:41;;;;;;;6.80;2.10;;;20.70;99.90;;;;;;4935958;29;20440;-85
2023/03/31 12:13:43;;;;;;;4.83;1.90;;;20.80;99.90;;;;;;4948696;28;20462;-85
2023/03/31 12:16:35;;;;;;;7.57;2.17;;;21.00;99.90;;;;;;4949421;28;20433;-85
2023/03/31 12:19:41;;;;;;;7.63;2.30;;;21.50;99.90;;;;;;4948910;28;20481;-85
2023/03/31 12:23:10;;;;;;;7.40;2.37;;;22.00;99.90;;;;;;4949518;28;20904;-85
2023/03/31 12:26:00;;;;;;;8.10;1.90;;;22.40;99.90;;;;;;4933449;28;20450;-85
2023/03/31 12:28:48;;;;;;;3.23;1.73;;;22.40;99.90;;;;;;4949631;28;20447;-85
2023/03/31 12:31:31;;;;;;;12.43;2.30;;;22.10;99.90;;;;;;4944940;28;20439;-85
2023/03/31 12:37:47;;;;;;;5.77;2.30;;;20.90;99.90;;;;;;4943264;28;20484;-86
2023/03/31 12:40:40;;;;;;;7.43;2.63;;;20.60;99.90;;;;;;4915292;28;20435;-85
2023/03/31 12:43:36;;;;;;;;;;;;;;;;;;;;;
2023/03/31 12:46:27;;;;;;;6.80;2.17;;;22.10;99.90;;;;;;4951369;28;20447;-85
2023/03/31 12:49:42;;;;;;;5.57;1.63;;;22.70;99.90;;;;;;4947849;28;20443;-85
2023/03/31 12:52:32;;;;;;;7.40;1.87;;;23.50;99.90;;;;;;4867882;29;20444;-85
2023/03/31 12:55:27;;;;;;;3.93;1.20;;;24.30;99.90;;;;;;4925313;28;20477;-85
2023/03/31 12:58:25;;;;;;;9.80;1.77;;;25.00;99.90;;;;;;4948782;28;20473;-86
2023/03/31 13:05:01;;;;;;;5.93;1.80;;;24.60;99.90;;;;;;4833087;29;21062;-86
2023/03/31 13:11:47;;;;;;;;;;;;;;;;;;;;;
2023/03/31 13:14:57;;;;;;;8.83;2.10;;;23.50;99.90;;;;;;4919465;28;20471;-87
2023/03/31 13:18:42;;;;;;;4.63;1.60;;;23.40;99.90;;;;;;4930346;28;20573;-86
2023/03/31 13:22:23;;;;;;;;;;;;;;;;;;;;;
2023/03/31 13:42:40;;;;;;;5.47;1.70;;;20.90;99.90;;;;;;4926743;28;20876;-85
2023/03/31 13:45:46;;;;;;;2.87;1.00;;;20.70;99.90;;;;;;4948966;28;20438;-84
2023/03/31 13:52:48;;;;;;;;;;;;;;;;;;;;;
2023/03/31 13:56:00;;;;;;;4.20;1.60;;;20.70;99.90;;;;;;4916766;28;21035;-85
2023/03/31 13:59:03;;;;;;;2.73;1.20;;;20.40;99.90;;;;;;4937765;28;20476;-84
2023/03/31 14:01:53;;;;;;;3.93;1.37;;;20.10;99.90;;;;;;4941967;28;20483;-84
2023/03/31 14:05:10;;;;;;;3.83;1.20;;;20.00;99.90;;;;;;4958709;28;20468;-85
2023/03/31 14:15:38;;;;;;;4.80;1.40;;;19.60;99.90;;;;;;4945015;28;20495;-86
2023/03/31 14:18:13;;;;;;;;;;;;;;;;;;;;;
2023/03/31 14:21:06;;;;;;;;;;;;;;;;;;;;;
2023/03/31 14:23:46;;;;;;;7.20;1.60;;;18.70;99.90;;;;;;4951265;28;20482;-85
2023/03/31 14:26:45;;;;;;;7.90;1.67;;;18.10;99.90;;;;;;4935495;29;20482;-85
2023/03/31 14:29:42;;;;;;;9.23;2.23;;;17.70;99.90;;;;;;4916452;28;20521;-85
2023/03/31 14:32:44;;;;;;;3.63;1.53;;;17.40;99.90;;;;;;4953974;28;20501;-86
2023/03/31 14:38:50;;;;;;;6.40;1.80;;;16.70;99.90;;;;;;4920860;28;20566;-85
2023/03/31 14:44:50;;;;;;;11.23;2.50;;;16.10;99.90;;;;;;4941824;28;20479;-84
2023/03/31 14:48:03;;;;;;;7.80;2.20;;;15.70;99.90;;;;;;4952254;28;20456;-84
2023/03/31 14:50:49;;;;;;;4.67;2.17;;;15.30;1.00;;;;;;4953392;28;20460;-85
2023/03/31 14:53:42;;;;;;;6.23;2.40;;;15.00;99.90;;;;;;4929725;29;20475;-85
2023/03/31 14:56:23;;;;;;;7.67;2.07;;;14.80;99.90;;;;;;4931869;29;20449;-85
2023/03/31 15:02:05;;;;;;;7.70;1.70;;;15.10;1.00;;;;;;4947355;28;20447;-85
2023/03/31 15:05:10;;;;;;;7.53;1.83;;;15.50;99.90;;;;;;4932531;28;21057;-85
2023/03/31 15:08:10;;;;;;;10.20;2.30;;;15.40;99.90;;;;;;4946821;28;20449;-85
2023/03/31 15:11:40;;;;;;;8.27;2.27;;;15.30;99.90;;;;;;4950190;28;20451;-85
2023/03/31 15:14:29;;;;;;;10.80;2.17;;;15.20;99.90;;;;;;4935202;28;20467;-86
2023/03/31 15:17:20;;;;;;;7.03;2.23;;;15.20;99.90;;;;;;4950664;28;21030;-86
2023/03/31 15:20:17;;;;;;;8.40;2.17;;;15.40;99.90;;;;;;4946299;28;20858;-85
2023/03/31 15:22:54;;;;;;;2.40;1.17;;;15.60;49.50;;;;;;4917235;28;20491;-84
2023/03/31 15:25:31;;;;;;;;;;;;;;;;;;;;;
2023/03/31 15:28:05;;;;;;;5.97;1.50;;;15.60;1.00;;;;;;4952422;28;20809;-85
2023/03/31 15:30:31;;;;;;;8.87;1.97;;;15.60;1.00;;;;;;4931879;29;20462;-85
2023/03/31 15:33:27;;;;;;;;;;;;;;;;;;;;;
2023/03/31 15:36:23;;;;;;;;;;;;;;;;;;;;;
2023/03/31 15:39:17;;;;;;;5.43;1.80;;;15.40;1.00;;;;;;4944814;28;20519;-85
2023/03/31 15:41:55;;;;;;;5.17;1.60;;;15.50;1.00;;;;;;4902189;28;20453;-85
2023/03/31 15:44:45;;;;;;;1.67;0.90;;;15.60;1.00;;;;;;4941702;28;20463;-85
2023/03/31 15:47:24;;;;;;;3.73;1.33;;;15.60;1.00;;;;;;4933033;29;20850;-85
2023/03/31 15:49:53;;;;;;;6.93;1.97;;;15.70;1.00;;;;;;4940418;28;20989;-84
2023/03/31 15:53:04;;;;;;;;;;;;;;;;;;;;;
2023/03/31 15:55:48;;;;;;;4.70;1.20;;;15.80;1.00;;;;;;4956300;28;20556;-85
2023/03/31 15:59:15;;;;;;;3.63;1.33;;;15.70;1.00;;;;;;4954093;28;20478;-85
2023/03/31 16:01:50;;;;;;;4.77;1.30;;;15.50;1.00;;;;;;4918011;28;20443;-85
2023/03/31 16:04:18;;;;;;;6.83;1.40;;;15.50;1.00;;;;;;4930496;29;20452;-85
2023/03/31 16:07:17;;;;;;;;;;;;;;;;;;;;;
2023/03/31 16:10:39;;;;;;;2.53;1.00;;;15.40;1.00;;;;;;4953888;28;20514;-85
2023/03/31 16:16:37;;;;;;;3.50;1.30;;;15.40;1.00;;;;;;4936412;28;20456;-85
2023/03/31 16:25:09;;;;;;;4.10;1.30;;;15.10;1.00;;;;;;4950173;28;20452;-85
2023/03/31 16:27:46;;;;;;;5.07;1.23;;;14.90;1.00;;;;;;4953239;28;20978;-85
2023/03/31 16:30:37;;;;;;;4.47;1.07;;;14.80;1.00;;;;;;4955979;28;20442;-85
2023/03/31 16:33:29;;;;;;;6.03;1.20;;;14.70;1.00;;;;;;4957807;28;20462;-85
2023/03/31 16:36:16;;;;;;;2.50;1.10;;;14.60;1.00;;;;;;4938059;29;20532;-85
2023/03/31 16:38:41;;;;;;;3.47;1.17;;;14.40;1.00;;;;;;4957671;28;20566;-85
2023/03/31 16:41:17;;;;;;;;;;;;;;;;;;;;;
2023/03/31 16:43:44;;;;;;;4.30;1.10;;;14.20;1.00;;;;;;4951622;28;20298;-85
2023/03/31 16:46:18;;;;;;;5.47;1.20;;;14.10;53.60;;;;;;4952485;28;20442;-85
2023/03/31 16:48:43;;;;;;;3.83;1.13;;;14.00;99.90;;;;;;4953403;28;20449;-85
2023/03/31 16:52:11;;;;;;;;;;;;;;;;;;;;;
2023/03/31 18:52:36;;;;;;;5.00;1.20;;;12.10;99.90;;;;;;4917766;29;20486;-82
